Aviation Digital Data Service (ADDS)

Output produced by METARs form (2249 UTC 19 January 2019)
found at http://www.aviationweather.gov/metar/data/
 
METAR text: EPRZ 192230Z 05003KT 4000 BR NSC M09/M10 Q1020 R27/42//95
Conditions at: EPRZ (RZESZOW/JASIONKA, PL) observed 2230 UTC 19 January 2019
Temperature: -9.0°C (16°F)
Dewpoint: -10.0°C (14°F) [RH = 92%]
Pressure (altimeter): 30.12 inches Hg (1020.0 mb)
Winds: from the NE (50 degrees) at 3 MPH (3 knots; 1.5 m/s)
Visibility: 2.49 miles (4.01 km)
Ceiling: at least 12,000 feet AGL
Clouds: sky clear below 12,000 feet AGL
Weather: BR  (mist)

METAR text: EPRZ 192200Z 05003KT 4000 BR NSC M08/M09 Q1020 R27/42//95
Conditions at: EPRZ (RZESZOW/JASIONKA, PL) observed 2200 UTC 19 January 2019
Temperature: -8.0°C (18°F)
Dewpoint: -9.0°C (16°F) [RH = 92%]
Pressure (altimeter): 30.12 inches Hg (1020.0 mb)
Winds: from the NE (50 degrees) at 3 MPH (3 knots; 1.5 m/s)
Visibility: 2.49 miles (4.01 km)
Ceiling: at least 12,000 feet AGL
Clouds: sky clear below 12,000 feet AGL
Weather: BR  (mist)

Forecast for: COR
Text: TAF COR EPRZ 191841Z 1918/2018 05005KT 4000 BR NSC
Forecast period: 1800 UTC 19 January 2019 to 0600 UTC 20 January 2019
Forecast type: FROM: standard forecast or significant change
Winds: from the NE (50 degrees) at 6 MPH (5 knots; 2.6 m/s)
Visibility: 2.49 miles (4.01 km)
Ceiling: unknown
Clouds: missing
Weather: BR  (mist)
Text: TEMPO 1919/2006 1200 BR
Forecast period: 1900 UTC 19 January 2019 to 0600 UTC 20 January 2019
Forecast type: TEMPORARY: The following changes expected for less than half the time period
Visibility: 0.75 miles (1.21 km)
Ceiling: unknown
Clouds: missing
Weather: BR  (mist)
Text: BECMG 2006/2009 CAVOK
Forecast period: 0600 to 1800 UTC 20 January 2019
Forecast type: BECOMING: Conditions expected to become as follows by 0900 UTC 20 January 2019
Winds: from the NE (50 degrees) at 6 MPH (5 knots; 2.6 m/s)
Visibility: 6 or more miles 10+ km)
Ceiling: unknown
Clouds: missing
Weather: NSW  (no significant weather)
Text: TEMPO 2009/2018 4000 BR
Forecast period: 0900 to 1800 UTC 20 January 2019
Forecast type: TEMPORARY: The following changes expected for less than half the time period
Visibility: 2.49 miles (4.01 km)
Ceiling: unknown
Clouds: missing
Weather: BR  (mist)